Terminal Aerodrome Forecast
Issued by NWS

Home | Current Version | Previous Version | Text Only | Print | Product List | Glossary On
Versions: 1 2 3 4 5 6 7 8 9 10 11 12
160
FTUS46 KSGX 052325
TAFTRM
TAF
KTRM 052325Z 0600/0624 32015G25KT P6SM SCT100
     FM061100 32010KT P6SM BKN100
     FM061900 12010KT P6SM VCSH BKN070=

USA.gov is the U.S. government's official web portal to all federal, state and local government web resources and services.